createdAt,value
2023-04-01T00:01:07.052Z,98996.28
2023-04-01T00:03:34.488Z,98997.41
2023-04-01T00:06:01.640Z,98995.94
2023-04-01T00:08:28.854Z,98997.03
2023-04-01T00:10:55.692Z,98997.31
2023-04-01T00:13:22.728Z,98999.16
2023-04-01T00:15:49.922Z,99005.41
2023-04-01T00:18:16.948Z,99003.19
2023-04-01T00:20:48.676Z,99002.69
2023-04-01T00:23:16.002Z,98995.72
2023-04-01T00:25:42.648Z,98999.75
2023-04-01T00:28:09.106Z,98996.69
2023-04-01T00:30:37.475Z,98986.31
2023-04-01T00:33:04.299Z,98988.53
2023-04-01T00:35:31.147Z,98981.91
2023-04-01T00:37:57.676Z,98990.34
2023-04-01T00:40:35.545Z,98985.41
2023-04-01T00:43:02.389Z,98971.59
2023-04-01T00:45:35.624Z,98984.59
2023-04-01T00:48:15.803Z,98981.09
2023-04-01T00:50:47.047Z,98986.94
2023-04-01T00:53:14.871Z,98980.69
2023-04-01T00:55:47.097Z,98976.69
2023-04-01T00:58:17.901Z,98989.59
2023-04-01T01:00:46.968Z,98988.53
2023-04-01T01:03:13.822Z,98984.69
2023-04-01T01:06:06.019Z,98970.59
2023-04-01T01:08:58.938Z,98972.78
2023-04-01T01:11:42.615Z,98973.41
2023-04-01T01:14:42.085Z,98970.69
2023-04-01T01:17:26.877Z,98970.06
2023-04-01T01:20:12.825Z,98967.97
2023-04-01T01:22:59.822Z,98973.59
2023-04-01T01:26:02.178Z,98966.16
2023-04-01T01:29:06.532Z,98970.00
2023-04-01T01:31:45.637Z,98967.78
2023-04-01T01:34:32.776Z,98974.59
2023-04-01T01:37:04.962Z,98970.22
2023-04-01T01:39:34.606Z,98976.47
2023-04-01T01:42:05.338Z,98973.22
2023-04-01T01:44:33.388Z,98983.09
2023-04-01T01:47:01.268Z,98972.78
2023-04-01T01:49:31.247Z,98966.56
2023-04-01T01:51:58.049Z,98971.78
2023-04-01T01:54:24.579Z,98966.34
2023-04-01T01:56:56.918Z,98965.91
2023-04-01T01:59:25.690Z,98969.50
2023-04-01T02:01:55.719Z,98958.41
2023-04-01T02:04:23.539Z,98978.56
2023-04-01T02:07:05.298Z,98971.72
2023-04-01T02:09:32.003Z,98969.06
2023-04-01T02:12:03.583Z,98975.09
2023-04-01T02:14:43.649Z,98975.03
2023-04-01T02:17:15.428Z,98970.19
2023-04-01T02:20:07.312Z,98984.78
2023-04-01T02:22:37.684Z,98981.03
2023-04-01T02:25:10.591Z,98988.16
2023-04-01T02:27:37.765Z,98979.59
2023-04-01T02:30:04.745Z,98979.59
2023-04-01T02:32:34.097Z,98975.03
2023-04-01T02:35:04.247Z,98975.09
2023-04-01T02:37:31.484Z,98971.41
2023-04-01T02:40:04.607Z,98973.84
2023-04-01T02:42:31.108Z,98973.38
2023-04-01T02:44:57.462Z,98965.09
2023-04-01T02:47:23.841Z,98970.13
2023-04-01T02:49:50.326Z,98971.69
2023-04-01T02:52:16.652Z,98968.75
2023-04-01T02:54:42.989Z,98964.63
2023-04-01T02:57:09.398Z,98961.13
2023-04-01T02:59:36.029Z,98961.03
2023-04-01T03:02:02.395Z,98963.22
2023-04-01T03:04:28.806Z,98951.63
2023-04-01T03:06:56.318Z,98959.25
2023-04-01T03:09:22.641Z,98958.47
2023-04-01T03:11:48.986Z,98959.34
2023-04-01T03:14:15.510Z,98960.72
2023-04-01T03:16:41.888Z,98958.03
2023-04-01T03:19:08.190Z,98963.66
2023-04-01T03:21:34.556Z,98967.47
2023-04-01T03:24:01.090Z,98975.34
2023-04-01T03:26:30.078Z,98967.06
2023-04-01T03:28:56.748Z,98959.78
2023-04-01T03:31:23.923Z,98969.25
2023-04-01T03:33:50.670Z,98969.91
2023-04-01T03:36:17.364Z,98969.97
2023-04-01T03:38:44.437Z,98978.97
2023-04-01T03:41:15.354Z,98975.44
2023-04-01T03:43:42.769Z,98975.38
2023-04-01T03:46:09.422Z,98986.75
2023-04-01T03:48:36.342Z,98981.03
2023-04-01T03:51:02.753Z,98985.69
2023-04-01T03:53:29.160Z,98984.09
2023-04-01T03:55:55.629Z,98985.19
2023-04-01T03:58:22.043Z,98982.72
2023-04-01T04:00:48.387Z,98976.66
2023-04-01T04:03:14.993Z,98980.41
2023-04-01T04:05:49.392Z,98980.69
2023-04-01T04:08:15.974Z,98981.94
2023-04-01T04:10:42.429Z,98980.41
2023-04-01T04:13:08.734Z,98983.91
2023-04-01T04:15:35.211Z,98986.34
2023-04-01T04:18:01.812Z,98982.47
2023-04-01T04:20:28.219Z,98988.41
2023-04-01T04:22:54.628Z,98987.00
2023-04-01T04:25:20.973Z,98987.56
2023-04-01T04:27:47.645Z,98988.06
2023-04-01T04:30:14.452Z,98987.00
2023-04-01T04:32:42.348Z,98990.56
2023-04-01T04:35:09.228Z,98982.13
2023-04-01T04:37:35.764Z,98985.94
2023-04-01T04:40:02.346Z,98986.22
2023-04-01T04:42:28.716Z,98984.38
2023-04-01T04:44:55.321Z,98987.63
2023-04-01T04:47:21.774Z,98975.63
2023-04-01T04:49:48.238Z,98988.41
2023-04-01T04:52:14.624Z,98983.50
2023-04-01T04:54:40.978Z,98986.22
2023-04-01T04:57:07.458Z,98996.28
2023-04-01T04:59:33.862Z,98999.34
2023-04-01T05:02:00.413Z,99003.38
2023-04-01T05:04:26.967Z,99012.91
2023-04-01T05:06:53.481Z,99001.75
2023-04-01T05:09:20.085Z,99005.28
2023-04-01T05:11:46.513Z,99004.53
2023-04-01T05:14:14.642Z,99010.03
2023-04-01T05:16:40.995Z,99011.06
2023-04-01T05:19:07.496Z,99012.09
2023-04-01T05:21:33.949Z,99013.72
2023-04-01T05:24:00.291Z,99019.16
2023-04-01T05:26:26.709Z,99018.56
2023-04-01T05:28:53.019Z,99022.03
2023-04-01T05:31:19.489Z,99020.41
2023-04-01T05:33:46.041Z,99019.06
2023-04-01T05:36:15.674Z,99029.09
2023-04-01T05:38:43.512Z,99027.28
2023-04-01T05:41:10.514Z,99027.81
2023-04-01T05:43:38.026Z,99035.66
2023-04-01T05:46:04.392Z,99030.53
2023-04-01T05:48:31.003Z,99032.72
2023-04-01T05:50:57.359Z,99031.91
2023-04-01T05:53:23.775Z,99034.13
2023-04-01T05:55:50.194Z,99037.63
2023-04-01T05:58:16.589Z,99039.06
2023-04-01T06:00:43.119Z,99043.09
2023-04-01T06:03:09.553Z,99042.66
2023-04-01T06:05:44.298Z,99034.72
2023-04-01T06:08:14.159Z,99045.91
2023-04-01T06:11:10.054Z,99045.81
2023-04-01T06:14:00.012Z,99050.69
2023-04-01T06:16:44.596Z,99055.31
2023-04-01T06:19:17.044Z,99054.03
2023-04-01T06:21:58.737Z,99051.25
2023-04-01T06:24:46.989Z,99045.81
2023-04-01T06:27:46.996Z,99051.19
2023-04-01T06:30:27.576Z,99055.50
2023-04-01T06:33:22.050Z,99063.09
2023-04-01T06:36:28.134Z,99061.19
2023-04-01T06:39:31.671Z,99065.75
2023-04-01T06:42:16.879Z,99062.97
2023-04-01T06:44:56.477Z,99063.50
2023-04-01T06:47:25.819Z,99072.78
2023-04-01T06:50:09.946Z,99065.97
2023-04-01T06:52:48.409Z,99068.41
2023-04-01T06:55:36.830Z,99067.88
2023-04-01T06:58:06.895Z,99073.88
2023-04-01T07:00:37.911Z,99084.19
2023-04-01T07:03:18.772Z,99073.31
2023-04-01T07:05:45.551Z,99072.97
2023-04-01T07:08:21.267Z,99082.69
2023-04-01T07:11:09.644Z,99080.50
2023-04-01T07:13:49.597Z,99089.34
2023-04-01T07:16:30.863Z,99087.75
2023-04-01T07:19:19.593Z,99085.00
2023-04-01T07:21:52.063Z,99083.22
2023-04-01T07:24:26.413Z,99089.25
2023-04-01T07:26:57.877Z,99087.88
2023-04-01T07:29:26.332Z,99099.91
2023-04-01T07:32:26.978Z,99101.22
2023-04-01T07:35:08.741Z,99103.13
2023-04-01T07:38:01.982Z,99111.31
2023-04-01T07:40:37.921Z,99112.94
2023-04-01T07:43:23.254Z,99119.50
2023-04-01T07:46:05.355Z,99109.47
2023-04-01T07:48:44.896Z,99114.00
2023-04-01T07:51:46.550Z,99113.41
2023-04-01T07:54:27.454Z,99121.50
2023-04-01T07:57:18.458Z,99118.25
2023-04-01T08:00:04.551Z,99119.88
2023-04-01T08:02:52.983Z,99120.47
2023-04-01T08:05:40.653Z,99126.97
2023-04-01T08:08:32.023Z,99127.44
2023-04-01T08:11:04.412Z,99136.63
2023-04-01T08:13:55.776Z,99136.75
2023-04-01T08:17:01.487Z,99145.69
2023-04-01T08:19:57.461Z,99149.22
2023-04-01T08:22:36.028Z,99145.41
2023-04-01T08:25:08.577Z,99154.00
2023-04-01T08:27:40.216Z,99168.13
2023-04-01T08:30:18.375Z,99161.88
2023-04-01T08:32:51.556Z,99161.59
2023-04-01T08:35:21.367Z,99167.31
2023-04-01T08:37:49.256Z,99171.19
2023-04-01T08:40:46.545Z,99172.75
2023-04-01T08:44:09.668Z,99177.09
2023-04-01T08:46:55.445Z,99177.34
2023-04-01T08:49:40.318Z,99180.09
2023-04-01T08:52:34.286Z,99175.81
2023-04-01T08:55:17.534Z,99187.72
2023-04-01T08:57:56.629Z,99183.88
2023-04-01T09:00:42.585Z,99189.31
2023-04-01T09:03:19.793Z,99185.25
2023-04-01T09:05:55.216Z,99190.34
2023-04-01T09:08:34.206Z,99197.31
2023-04-01T09:11:09.105Z,99188.66
2023-04-01T09:14:15.628Z,99197.06
2023-04-01T09:17:05.338Z,99205.00
2023-04-01T09:20:04.510Z,99205.53
2023-04-01T09:22:52.731Z,99208.78
2023-04-01T09:26:07.089Z,99219.31
2023-04-01T09:29:07.210Z,99227.84
2023-04-01T09:31:48.935Z,99217.00
2023-04-01T09:34:55.450Z,99221.63
2023-04-01T09:37:30.993Z,99236.00
2023-04-01T09:40:31.460Z,99232.22
2023-04-01T09:43:22.086Z,99232.22
2023-04-01T09:46:18.652Z,99234.97
2023-04-01T09:48:54.956Z,99241.75
2023-04-01T09:51:53.296Z,99244.16
2023-04-01T09:54:53.024Z,99251.22
2023-04-01T09:57:47.300Z,99253.94
2023-04-01T10:00:31.863Z,99254.19
2023-04-01T10:03:29.867Z,99260.06
2023-04-01T10:06:27.173Z,99253.84
2023-04-01T10:09:31.112Z,99262.03
2023-04-01T10:12:21.432Z,99269.09
2023-04-01T10:15:12.637Z,99273.97
2023-04-01T10:17:57.672Z,99279.69
2023-04-01T10:21:00.507Z,99280.19
2023-04-01T10:24:05.985Z,99284.50
2023-04-01T10:27:10.351Z,99291.84
2023-04-01T10:30:03.862Z,99285.88
2023-04-01T10:33:07.804Z,99293.50
2023-04-01T10:35:55.949Z,99304.81
2023-04-01T10:39:02.014Z,99292.88
2023-04-01T10:42:08.948Z,99294.47
2023-04-01T10:45:16.784Z,99297.13
2023-04-01T10:47:58.087Z,99297.53
2023-04-01T10:50:27.382Z,99290.53
2023-04-01T10:53:15.626Z,99296.13
2023-04-01T10:56:21.600Z,99301.28
2023-04-01T10:59:27.975Z,99299.66
2023-04-01T11:02:31.090Z,99302.38
2023-04-01T11:05:35.892Z,99298.06
2023-04-01T11:08:24.356Z,99309.38
2023-04-01T11:10:56.810Z,99309.63
2023-04-01T11:13:42.434Z,99311.00
2023-04-01T11:16:31.089Z,99309.84
2023-04-01T11:19:34.667Z,99302.81
2023-04-01T11:22:19.452Z,99306.06
2023-04-01T11:24:46.078Z,99313.09
2023-04-01T11:27:15.525Z,99316.94
2023-04-01T11:29:59.694Z,99313.34
2023-04-01T11:32:39.148Z,99323.66
2023-04-01T11:35:45.003Z,99317.97
2023-04-01T11:38:20.229Z,99321.78
2023-04-01T11:41:01.538Z,99326.06
2023-04-01T11:43:50.237Z,99341.81
2023-04-01T11:46:27.345Z,99334.97
2023-04-01T11:49:07.750Z,99339.59
2023-04-01T11:52:13.012Z,99340.69
2023-04-01T11:55:21.081Z,99346.38
2023-04-01T11:58:26.286Z,99356.31
2023-04-01T12:01:07.820Z,99362.19
2023-04-01T12:04:05.188Z,99359.94
2023-04-01T12:07:11.474Z,99366.47
2023-04-01T12:09:47.421Z,99365.09
2023-04-01T12:12:32.539Z,99363.22
2023-04-01T12:15:38.602Z,99365.94
2023-04-01T12:18:34.479Z,99369.84
2023-04-01T12:21:24.041Z,99376.91
2023-04-01T12:23:53.542Z,99372.47
2023-04-01T12:26:57.652Z,99384.78
2023-04-01T12:30:01.530Z,99381.75
2023-04-01T12:32:46.732Z,99380.16
2023-04-01T12:35:28.052Z,99397.03
2023-04-01T12:38:26.828Z,99401.31
2023-04-01T12:41:06.903Z,99406.66
2023-04-01T12:43:33.213Z,99402.25
2023-04-01T12:46:55.508Z,99410.09
2023-04-01T12:49:32.155Z,99396.81
2023-04-01T12:52:31.541Z,99409.31
2023-04-01T12:55:29.129Z,99399.53
2023-04-01T12:58:19.604Z,99406.03
2023-04-01T13:00:51.336Z,99411.47
2023-04-01T13:03:26.590Z,99417.66
2023-04-01T13:06:17.239Z,99414.63
2023-04-01T13:08:58.681Z,99416.25
2023-04-01T13:11:47.982Z,99421.75
2023-04-01T13:14:31.381Z,99423.38
2023-04-01T13:17:13.769Z,99431.97
2023-04-01T13:20:02.100Z,99430.28
2023-04-01T13:22:46.823Z,99434.91
2023-04-01T13:25:28.959Z,99433.81
2023-04-01T13:28:06.410Z,99434.44
2023-04-01T13:30:58.772Z,99438.72
2023-04-01T13:33:48.847Z,99439.75
2023-04-01T13:36:36.218Z,99442.25
2023-04-01T13:39:29.241Z,99443.63
2023-04-01T13:42:05.966Z,99452.31
2023-04-01T13:44:38.414Z,99438.16
2023-04-01T13:47:24.682Z,99451.69
2023-04-01T13:50:26.055Z,99451.13
2023-04-01T13:53:04.603Z,99446.19
2023-04-01T13:55:52.138Z,99460.84
2023-04-01T13:58:35.162Z,99461.66
2023-04-01T14:01:09.782Z,99467.38
2023-04-01T14:04:06.150Z,99470.81
2023-04-01T14:06:36.543Z,99472.81
2023-04-01T14:09:18.493Z,99468.75
2023-04-01T14:12:22.160Z,99476.38
2023-04-01T14:15:00.630Z,99477.84
2023-04-01T14:18:00.886Z,99483.56
2023-04-01T14:20:53.787Z,99482.50
2023-04-01T14:23:32.711Z,99487.94
2023-04-01T14:26:31.120Z,99491.19
2023-04-01T14:29:13.568Z,99490.66
2023-04-01T14:31:52.602Z,99492.81
2023-04-01T14:34:34.114Z,99490.66
2023-04-01T14:37:31.488Z,99493.69
2023-04-01T14:40:22.770Z,99506.53
2023-04-01T14:43:01.874Z,99505.66
2023-04-01T14:45:46.978Z,99499.94
2023-04-01T14:48:39.622Z,99503.00
2023-04-01T14:51:35.874Z,99512.69
2023-04-01T14:54:11.614Z,99518.44
2023-04-01T14:56:41.088Z,99508.69
2023-04-01T14:59:17.822Z,99514.88
2023-04-01T15:01:51.823Z,99524.41
2023-04-01T15:04:48.252Z,99515.97
2023-04-01T15:07:42.665Z,99524.69
2023-04-01T15:10:30.365Z,99534.19
2023-04-01T15:13:10.988Z,99532.00
2023-04-01T15:15:58.357Z,99532.50
2023-04-01T15:19:22.171Z,99533.63
2023-04-01T15:21:57.393Z,99533.09
2023-04-01T15:24:25.438Z,99539.34
2023-04-01T15:27:32.879Z,99539.63
2023-04-01T15:30:16.725Z,99545.06
2023-04-01T15:33:07.548Z,99551.91
2023-04-01T15:35:37.122Z,99552.72
2023-04-01T15:38:08.113Z,99550.81
2023-04-01T15:40:43.611Z,99555.50
2023-04-01T15:43:29.610Z,99559.59
2023-04-01T15:45:59.460Z,99566.31
2023-04-01T15:48:29.096Z,99568.50
2023-04-01T15:51:20.428Z,99576.69
2023-04-01T15:54:24.236Z,99571.44
2023-04-01T15:56:59.682Z,99585.63
2023-04-01T16:00:01.261Z,99590.84
2023-04-01T16:02:46.889Z,99582.41
2023-04-01T16:05:43.750Z,99593.22
2023-04-01T16:08:42.644Z,99595.66
2023-04-01T16:11:27.251Z,99603.81
2023-04-01T16:14:18.223Z,99597.31
2023-04-01T16:16:59.949Z,99600.38
2023-04-01T16:19:51.395Z,99599.84
2023-04-01T16:22:23.993Z,99610.94
2023-04-01T16:25:40.993Z,99612.56
2023-04-01T16:28:20.994Z,99617.47
2023-04-01T16:31:27.025Z,99622.94
2023-04-01T16:34:02.525Z,99623.53
2023-04-01T16:36:37.084Z,99620.88
2023-04-01T16:39:33.822Z,99627.94
2023-04-01T16:42:14.501Z,99629.03
2023-04-01T16:45:08.229Z,99633.94
2023-04-01T16:47:47.650Z,99636.13
2023-04-01T16:50:40.214Z,99647.53
2023-04-01T16:53:12.245Z,99639.94
2023-04-01T16:55:49.729Z,99648.94
2023-04-01T16:58:24.566Z,99659.25
2023-04-01T17:00:59.758Z,99659.00
2023-04-01T17:03:46.360Z,99659.00
2023-04-01T17:06:32.029Z,99657.94
2023-04-01T17:09:40.342Z,99661.44
2023-04-01T17:12:15.700Z,99677.50
2023-04-01T17:15:02.458Z,99667.69
2023-04-01T17:17:44.879Z,99683.19
2023-04-01T17:20:20.198Z,99682.94
2023-04-01T17:23:04.777Z,99682.13
2023-04-01T17:25:56.153Z,99682.41
2023-04-01T17:28:48.093Z,99684.03
2023-04-01T17:31:42.840Z,99699.81
2023-04-01T17:34:30.822Z,99712.88
2023-04-01T17:37:12.315Z,99709.34
2023-04-01T17:40:21.565Z,99713.97
2023-04-01T17:42:59.443Z,99712.59
2023-04-01T17:45:54.246Z,99725.34
2023-04-01T17:48:42.912Z,99725.63
2023-04-01T17:51:14.651Z,99723.19
2023-04-01T17:54:06.521Z,99728.06
2023-04-01T17:56:50.652Z,99737.31
2023-04-01T17:59:20.734Z,99743.31
2023-04-01T18:02:14.899Z,99748.75
2023-04-01T18:05:17.112Z,99751.47
2023-04-01T18:08:01.835Z,99756.63
2023-04-01T18:10:53.100Z,99756.94
2023-04-01T18:13:41.003Z,99768.06
2023-04-01T18:16:41.181Z,99773.22
2023-04-01T18:19:35.405Z,99769.94
2023-04-01T18:22:21.755Z,99778.13
2023-04-01T18:25:02.125Z,99785.72
2023-04-01T18:27:39.690Z,99782.72
2023-04-01T18:30:40.460Z,99794.13
2023-04-01T18:33:18.711Z,99794.16
2023-04-01T18:36:36.779Z,99798.75
2023-04-01T18:39:05.396Z,99800.94
2023-04-01T18:41:51.223Z,99806.91
2023-04-01T18:44:29.424Z,99806.34
2023-04-01T18:47:20.535Z,99809.63
2023-04-01T18:49:51.171Z,99815.59
2023-04-01T18:52:28.774Z,99823.50
2023-04-01T18:55:01.327Z,99825.63
2023-04-01T18:57:41.744Z,99830.53
2023-04-01T19:00:37.314Z,99831.88
2023-04-01T19:03:19.861Z,99831.88
2023-04-01T19:05:49.561Z,99846.81
2023-04-01T19:08:36.912Z,99842.50
2023-04-01T19:11:28.072Z,99854.44
2023-04-01T19:14:17.162Z,99848.72
2023-04-01T19:16:53.682Z,99854.72
2023-04-01T19:19:37.656Z,99857.69
2023-04-01T19:22:12.463Z,99858.50
2023-04-01T19:25:20.910Z,99860.66
2023-04-01T19:27:51.509Z,99861.47
2023-04-01T19:30:37.889Z,99860.94
2023-04-01T19:33:22.307Z,99871.00
2023-04-01T19:35:54.620Z,99868.53
2023-04-01T19:38:31.079Z,99876.69
2023-04-01T19:41:21.139Z,99870.47
2023-04-01T19:44:05.748Z,99869.38
2023-04-01T19:47:24.616Z,99878.06
2023-04-01T19:50:24.623Z,99882.38
2023-04-01T19:52:54.862Z,99882.69
2023-04-01T19:55:51.306Z,99883.75
2023-04-01T19:58:37.442Z,99891.91
2023-04-01T20:01:05.737Z,99885.66
2023-04-01T20:03:42.531Z,99887.56
2023-04-01T20:06:21.225Z,99894.34
2023-04-01T20:09:13.792Z,99899.19
2023-04-01T20:11:49.543Z,99903.53
2023-04-01T20:14:41.000Z,99912.22
2023-04-01T20:17:07.338Z,99910.34
2023-04-01T20:19:54.147Z,99913.59
2023-04-01T20:22:32.935Z,99916.31
2023-04-01T20:25:06.789Z,99922.84
2023-04-01T20:27:37.835Z,99930.69
2023-04-01T20:30:07.253Z,99940.19
2023-04-01T20:32:43.052Z,99933.13
2023-04-01T20:35:34.025Z,99932.59
2023-04-01T20:38:28.606Z,99932.56
2023-04-01T20:41:21.400Z,99945.34
2023-04-01T20:43:59.087Z,99945.63
2023-04-01T20:46:46.855Z,99946.44
2023-04-01T20:49:36.315Z,99952.38
2023-04-01T20:52:25.387Z,99953.47
2023-04-01T20:55:15.664Z,99961.59
2023-04-01T20:58:02.207Z,99962.69
2023-04-01T21:00:45.553Z,99962.94
2023-04-01T21:03:15.950Z,99967.03
2023-04-01T21:06:11.928Z,99964.31
2023-04-01T21:09:00.584Z,99966.75
2023-04-01T21:11:35.763Z,99970.03
2023-04-01T21:14:20.913Z,99969.22
2023-04-01T21:17:03.499Z,99968.97
2023-04-01T21:20:07.467Z,99976.31
2023-04-01T21:22:51.121Z,99981.72
2023-04-01T21:25:36.082Z,99982.25
2023-04-01T21:28:19.137Z,99984.97
2023-04-01T21:31:13.999Z,99988.78
2023-04-01T21:34:19.157Z,99987.94
2023-04-01T21:37:10.092Z,99992.84
2023-04-01T21:39:49.934Z,99995.84
2023-04-01T21:42:49.460Z,99995.31
2023-04-01T21:45:28.249Z,99998.03
2023-04-01T21:48:03.777Z,100006.97
2023-04-01T21:50:48.384Z,100001.25
2023-04-01T21:54:04.248Z,100011.00
2023-04-01T21:56:52.033Z,100006.94
2023-04-01T21:59:52.050Z,100015.06
2023-04-01T22:02:44.636Z,100016.47
2023-04-01T22:05:13.270Z,100016.22
2023-04-01T22:07:48.799Z,100028.72
2023-04-01T22:10:24.296Z,100026.81
2023-04-01T22:13:09.183Z,100030.34
2023-04-01T22:15:54.002Z,100028.41
2023-04-01T22:18:34.946Z,100029.78
2023-04-01T22:21:24.578Z,100040.91
2023-04-01T22:24:06.347Z,100034.66
2023-04-01T22:26:50.818Z,100048.00
2023-04-01T22:29:33.513Z,100054.22
2023-04-01T22:32:07.448Z,100046.88
2023-04-01T22:34:45.111Z,100046.59
2023-04-01T22:37:35.941Z,100052.81
2023-04-01T22:40:18.030Z,100054.97
2023-04-01T22:42:47.744Z,100059.00
2023-04-01T22:45:14.028Z,100059.56
2023-04-01T22:47:46.473Z,100063.69
2023-04-01T22:50:21.512Z,100066.38
2023-04-01T22:52:51.503Z,100071.28
2023-04-01T22:55:33.205Z,100073.19
2023-04-01T22:58:03.584Z,100079.41
2023-04-01T23:00:42.939Z,100077.25
2023-04-01T23:03:35.465Z,100072.94
2023-04-01T23:06:04.844Z,100079.38
2023-04-01T23:09:01.329Z,100083.19
2023-04-01T23:11:42.616Z,100089.59
2023-04-01T23:14:21.066Z,100091.78
2023-04-01T23:17:09.616Z,100093.13
2023-04-01T23:19:47.297Z,100096.63
2023-04-01T23:22:22.316Z,100106.41
2023-04-01T23:25:05.929Z,100105.16
2023-04-01T23:27:40.597Z,100115.75
2023-04-01T23:30:38.590Z,100118.22
2023-04-01T23:33:13.975Z,100124.50
2023-04-01T23:36:13.189Z,100133.50
2023-04-01T23:38:45.268Z,100133.78
2023-04-01T23:41:23.303Z,100143.50
2023-04-01T23:44:05.940Z,100145.63
2023-04-01T23:46:35.911Z,100156.72
2023-04-01T23:49:04.724Z,100165.66
2023-04-01T23:51:41.606Z,100167.25
2023-04-01T23:54:32.692Z,100168.16
2023-04-01T23:56:59.734Z,100175.81
2023-04-01T23:59:31.876Z,100178.25
